createdAt,value
2018-10-05T00:00:21.376Z,96355.00
2018-10-05T00:05:50.768Z,96343.00
2018-10-05T00:11:20.129Z,96351.00
2018-10-05T00:16:49.436Z,96346.00
2018-10-05T00:22:19.416Z,96354.00
2018-10-05T00:27:48.670Z,96352.00
2018-10-05T00:33:17.932Z,96342.00
2018-10-05T00:38:47.535Z,96339.00
2018-10-05T00:44:16.812Z,96336.00
2018-10-05T00:49:46.175Z,96323.00
2018-10-05T00:55:15.420Z,96327.00
2018-10-05T01:00:51.645Z,96326.00
2018-10-05T01:06:20.916Z,96330.00
2018-10-05T01:11:52.272Z,96329.00
2018-10-05T01:17:21.505Z,96321.00
2018-10-05T01:22:50.892Z,96326.00
2018-10-05T01:28:20.165Z,96320.00
2018-10-05T01:33:49.467Z,96312.00
2018-10-05T01:39:18.742Z,96305.00
2018-10-05T01:44:48.023Z,96305.00
2018-10-05T01:50:17.404Z,96312.00
2018-10-05T01:55:55.269Z,96304.00
2018-10-05T02:01:24.549Z,96305.00
2018-10-05T02:06:53.812Z,96312.00
2018-10-05T02:12:23.172Z,96307.00
2018-10-05T02:17:52.521Z,96308.00
2018-10-05T02:23:21.775Z,96295.00
2018-10-05T02:28:52.085Z,96291.00
2018-10-05T02:34:22.127Z,96281.00
2018-10-05T02:39:52.243Z,96264.00
2018-10-05T02:45:21.826Z,96266.00
2018-10-05T02:50:54.935Z,96276.00
2018-10-05T02:56:25.392Z,96268.00
2018-10-05T03:02:11.427Z,96265.00
2018-10-05T03:07:40.672Z,96259.00
2018-10-05T03:13:09.896Z,96261.00
2018-10-05T03:18:39.164Z,96261.00
2018-10-05T03:24:10.493Z,96252.00
2018-10-05T03:29:39.729Z,96252.00
2018-10-05T03:35:21.705Z,96238.00
2018-10-05T03:40:51.013Z,96235.00
2018-10-05T03:46:20.396Z,96240.00
2018-10-05T03:51:49.700Z,96239.00
2018-10-05T03:57:19.017Z,96234.00
2018-10-05T04:02:48.360Z,96230.00
2018-10-05T04:08:17.676Z,96228.00
2018-10-05T04:13:46.934Z,96221.00
2018-10-05T04:19:16.311Z,96222.00
2018-10-05T04:24:45.551Z,96227.00
2018-10-05T04:30:14.961Z,96212.00
2018-10-05T04:35:45.647Z,96214.00
2018-10-05T04:41:15.975Z,96199.00
2018-10-05T04:46:45.490Z,96201.00
2018-10-05T04:52:14.817Z,96209.00
2018-10-05T04:57:44.237Z,96204.00
2018-10-05T05:03:15.213Z,96211.00
2018-10-05T05:08:44.601Z,96216.00
2018-10-05T05:14:13.935Z,96215.00
2018-10-05T05:19:43.288Z,96211.00
2018-10-05T05:25:13.628Z,96211.00
2018-10-05T05:30:42.938Z,96212.00
2018-10-05T05:36:12.283Z,96201.00
2018-10-05T05:41:41.601Z,96208.00
2018-10-05T05:47:10.989Z,96214.00
2018-10-05T05:52:40.275Z,96217.00
2018-10-05T05:58:09.529Z,96227.00
2018-10-05T06:03:39.492Z,96236.00
2018-10-05T06:09:10.379Z,96233.00
2018-10-05T06:14:39.697Z,96231.00
2018-10-05T06:20:08.973Z,96232.00
2018-10-05T06:25:38.285Z,96235.00
2018-10-05T06:31:07.944Z,96231.00
2018-10-05T06:36:37.249Z,96246.00
2018-10-05T06:42:06.681Z,96243.00
2018-10-05T06:47:35.878Z,96257.00
2018-10-05T06:53:05.222Z,96270.00
2018-10-05T06:58:34.419Z,96257.00
2018-10-05T07:04:03.696Z,96257.00
2018-10-05T07:09:32.976Z,96259.00
2018-10-05T07:15:02.244Z,96253.00
2018-10-05T07:20:31.949Z,96263.00
2018-10-05T07:26:01.333Z,96259.00
2018-10-05T07:31:30.677Z,96263.00
2018-10-05T07:36:59.998Z,96250.00
2018-10-05T07:42:29.308Z,96251.00
2018-10-05T07:47:58.581Z,96257.00
2018-10-05T07:53:27.879Z,96248.00
2018-10-05T07:58:57.132Z,96256.00
2018-10-05T08:04:26.544Z,96274.00
2018-10-05T08:09:55.859Z,96272.00
2018-10-05T08:15:25.180Z,96267.00
2018-10-05T08:20:54.589Z,96260.00
2018-10-05T08:26:23.836Z,96268.00
2018-10-05T08:31:53.172Z,96270.00
2018-10-05T08:37:22.503Z,96268.00
2018-10-05T08:42:51.783Z,96255.00
2018-10-05T08:48:21.006Z,96252.00
2018-10-05T08:53:50.354Z,96250.00
2018-10-05T08:59:19.628Z,96249.00
2018-10-05T09:04:48.952Z,96233.00
2018-10-05T09:10:18.333Z,96222.00
2018-10-05T09:15:47.656Z,96222.00
2018-10-05T09:21:17.234Z,96207.00
2018-10-05T09:26:46.685Z,96206.00
2018-10-05T09:32:17.108Z,96200.00
2018-10-05T09:37:46.649Z,96196.00
2018-10-05T09:43:18.428Z,96185.00
2018-10-05T09:48:47.760Z,96176.00
2018-10-05T09:54:25.574Z,96180.00
2018-10-05T09:59:55.008Z,96175.00
2018-10-05T10:05:24.725Z,96168.00
2018-10-05T10:10:54.087Z,96157.00
2018-10-05T10:16:23.537Z,96150.00
2018-10-05T10:21:53.868Z,96156.00
2018-10-05T10:27:23.777Z,96147.00
2018-10-05T10:32:54.158Z,96147.00
2018-10-05T10:38:23.889Z,96145.00
2018-10-05T10:43:54.408Z,96139.00
2018-10-05T10:49:23.673Z,96140.00
2018-10-05T10:54:53.178Z,96138.00
2018-10-05T11:00:22.681Z,96131.00
2018-10-05T11:05:52.056Z,96125.00
2018-10-05T11:11:23.566Z,96118.00
2018-10-05T11:16:53.002Z,96111.00
2018-10-05T11:22:22.300Z,96094.00
2018-10-05T11:27:52.062Z,96092.00
2018-10-05T11:33:21.698Z,96086.00
2018-10-05T11:38:53.061Z,96085.00
2018-10-05T11:44:22.429Z,96072.00
2018-10-05T11:49:51.705Z,96060.00
2018-10-05T11:55:21.279Z,96056.00
2018-10-05T12:00:50.736Z,96046.00
2018-10-05T12:06:20.061Z,96032.00
2018-10-05T12:11:49.459Z,96020.00
2018-10-05T12:17:19.894Z,96022.00
2018-10-05T12:22:49.276Z,96021.00
2018-10-05T12:28:18.592Z,96016.00
2018-10-05T12:33:48.015Z,96016.00
2018-10-05T12:39:20.984Z,96015.00
2018-10-05T12:44:52.300Z,95999.00
2018-10-05T12:50:21.867Z,95986.00
2018-10-05T12:55:52.166Z,95991.00
2018-10-05T13:01:22.005Z,95980.00
2018-10-05T13:06:51.490Z,95979.00
2018-10-05T13:12:20.842Z,95976.00
2018-10-05T13:17:50.436Z,95970.00
2018-10-05T13:23:19.801Z,95963.00
2018-10-05T13:28:49.164Z,95953.00
2018-10-05T13:34:18.501Z,95950.00
2018-10-05T13:39:47.768Z,95946.00
2018-10-05T13:45:17.065Z,95940.00
2018-10-05T13:50:46.398Z,95936.00
2018-10-05T13:56:19.153Z,95919.00
2018-10-05T14:01:48.420Z,95895.00
2018-10-05T14:07:17.779Z,95884.00
2018-10-05T14:12:47.189Z,95880.00
2018-10-05T14:18:16.568Z,95862.00
2018-10-05T14:23:46.036Z,95878.00
2018-10-05T14:29:15.374Z,95880.00
2018-10-05T14:34:44.624Z,95869.00
2018-10-05T14:40:13.998Z,95871.00
2018-10-05T14:45:43.336Z,95886.00
2018-10-05T14:51:12.632Z,95901.00
2018-10-05T14:56:41.896Z,95900.00
2018-10-05T15:02:11.237Z,95874.00
2018-10-05T15:07:40.560Z,95900.00
2018-10-05T15:13:10.333Z,95890.00
2018-10-05T15:18:39.600Z,95877.00
2018-10-05T15:24:08.969Z,95875.00
2018-10-05T15:29:38.294Z,95879.00
2018-10-05T15:35:07.688Z,95871.00
2018-10-05T15:40:37.974Z,95866.00
2018-10-05T15:46:09.583Z,95869.00
2018-10-05T15:51:38.913Z,95866.00
2018-10-05T15:57:08.378Z,95856.00
2018-10-05T16:02:37.757Z,95844.00
2018-10-05T16:08:07.280Z,95846.00
2018-10-05T16:13:36.553Z,95841.00
2018-10-05T16:19:07.337Z,95855.00
2018-10-05T16:24:40.659Z,95845.00
2018-10-05T16:30:11.072Z,95844.00
2018-10-05T16:35:40.497Z,95829.00
2018-10-05T16:41:09.808Z,95829.00
2018-10-05T16:46:42.377Z,95806.00
2018-10-05T16:52:11.594Z,95815.00
2018-10-05T16:57:41.015Z,95819.00
2018-10-05T17:03:11.593Z,95828.00
2018-10-05T17:08:43.689Z,95833.00
2018-10-05T17:14:17.629Z,95828.00
2018-10-05T17:19:50.551Z,95830.00
2018-10-05T17:25:23.253Z,95815.00
2018-10-05T17:30:52.620Z,95806.00
2018-10-05T17:36:22.073Z,95799.00
2018-10-05T17:41:51.382Z,95793.00
2018-10-05T17:47:20.798Z,95804.00
2018-10-05T17:52:51.227Z,95803.00
2018-10-05T17:58:20.560Z,95798.00
2018-10-05T18:03:49.906Z,95794.00
2018-10-05T18:09:19.174Z,95802.00
2018-10-05T18:14:50.471Z,95792.00
2018-10-05T18:20:25.964Z,95796.00
2018-10-05T18:25:56.341Z,95787.00
2018-10-05T18:31:25.671Z,95786.00
2018-10-05T18:36:55.112Z,95781.00
2018-10-05T18:42:27.896Z,95774.00
2018-10-05T18:47:58.417Z,95781.00
2018-10-05T18:53:27.939Z,95783.00
2018-10-05T18:58:57.327Z,95782.00
2018-10-05T19:04:26.857Z,95770.00
2018-10-05T19:09:56.327Z,95766.00
2018-10-05T19:15:25.661Z,95776.00
2018-10-05T19:20:55.187Z,95762.00
2018-10-05T19:26:24.845Z,95758.00
2018-10-05T19:31:54.211Z,95756.00
2018-10-05T19:37:23.897Z,95764.00
2018-10-05T19:42:56.565Z,95770.00
2018-10-05T19:48:26.893Z,95762.00
2018-10-05T19:53:56.697Z,95765.00
2018-10-05T19:59:26.488Z,95769.00
2018-10-05T20:04:58.088Z,95773.00
2018-10-05T20:10:29.539Z,95764.00
2018-10-05T20:15:59.197Z,95767.00
2018-10-05T20:21:28.727Z,95759.00
2018-10-05T20:26:58.044Z,95762.00
2018-10-05T20:32:27.615Z,95756.00
2018-10-05T20:37:56.818Z,95748.00
2018-10-05T20:43:26.133Z,95749.00
2018-10-05T20:48:55.640Z,95743.00
2018-10-05T20:54:25.046Z,95746.00
2018-10-05T20:59:54.295Z,95741.00
2018-10-05T21:05:23.591Z,95739.00
2018-10-05T21:10:52.995Z,95740.00
2018-10-05T21:16:22.285Z,95735.00
2018-10-05T21:21:51.629Z,95743.00
2018-10-05T21:27:20.908Z,95747.00
2018-10-05T21:32:51.368Z,95744.00
2018-10-05T21:38:20.784Z,95737.00
2018-10-05T21:43:50.254Z,95742.00
2018-10-05T21:49:19.540Z,95743.00
2018-10-05T21:54:48.857Z,95733.00
2018-10-05T22:00:18.260Z,95727.00
2018-10-05T22:05:47.622Z,95719.00
2018-10-05T22:11:16.955Z,95726.00
2018-10-05T22:16:46.312Z,95721.00
2018-10-05T22:22:15.652Z,95701.00
2018-10-05T22:27:45.113Z,95690.00
2018-10-05T22:33:14.377Z,95685.00
2018-10-05T22:38:43.689Z,95681.00
2018-10-05T22:44:12.972Z,95683.00
2018-10-05T22:49:42.257Z,95667.00
2018-10-05T22:55:11.565Z,95673.00
2018-10-05T23:00:40.860Z,95694.00
2018-10-05T23:06:11.358Z,95705.00
2018-10-05T23:11:40.671Z,95704.00
2018-10-05T23:17:09.941Z,95715.00
2018-10-05T23:22:39.222Z,95720.00
2018-10-05T23:28:08.500Z,95706.00
2018-10-05T23:33:37.841Z,95695.00
2018-10-05T23:39:09.827Z,95690.00
2018-10-05T23:44:39.129Z,95709.00
2018-10-05T23:50:08.476Z,95699.00
2018-10-05T23:55:37.937Z,95688.00
